createdAt,value
2022-09-14T00:01:28.622Z,16.71
2022-09-14T00:03:56.386Z,16.67
2022-09-14T00:06:22.947Z,16.63
2022-09-14T00:08:50.916Z,16.59
2022-09-14T00:11:17.378Z,16.56
2022-09-14T00:13:44.693Z,16.54
2022-09-14T00:16:17.577Z,16.60
2022-09-14T00:18:44.550Z,16.64
2022-09-14T00:21:12.189Z,16.68
2022-09-14T00:23:39.773Z,16.70
2022-09-14T00:26:08.579Z,16.68
2022-09-14T00:28:42.027Z,16.67
2022-09-14T00:31:08.905Z,16.66
2022-09-14T00:33:35.795Z,16.65
2022-09-14T00:36:09.453Z,16.65
2022-09-14T00:38:36.341Z,16.65
2022-09-14T00:41:03.320Z,16.66
2022-09-14T00:43:52.456Z,16.68
2022-09-14T00:46:18.939Z,16.69
2022-09-14T00:48:45.425Z,16.76
2022-09-14T00:51:11.967Z,16.80
2022-09-14T00:53:38.853Z,16.85
2022-09-14T00:56:05.996Z,16.92
2022-09-14T00:58:32.498Z,16.96
2022-09-14T01:00:59.020Z,17.00
2022-09-14T01:03:25.561Z,17.02
2022-09-14T01:06:04.643Z,17.06
2022-09-14T01:08:46.417Z,17.09
2022-09-14T01:11:26.776Z,17.07
2022-09-14T01:14:02.149Z,17.04
2022-09-14T01:16:40.653Z,17.01
2022-09-14T01:19:33.687Z,17.01
2022-09-14T01:22:09.264Z,16.99
2022-09-14T01:24:44.791Z,16.97
2022-09-14T01:27:20.008Z,16.96
2022-09-14T01:29:50.238Z,16.96
2022-09-14T01:32:16.771Z,16.95
2022-09-14T01:34:46.056Z,16.91
2022-09-14T01:37:32.745Z,16.86
2022-09-14T01:40:09.437Z,16.83
2022-09-14T01:42:38.196Z,16.82
2022-09-14T01:45:08.908Z,16.84
2022-09-14T01:47:46.987Z,16.85
2022-09-14T01:50:20.624Z,16.83
2022-09-14T01:52:49.466Z,16.82
2022-09-14T01:55:18.373Z,16.84
2022-09-14T01:57:50.566Z,16.85
2022-09-14T02:00:18.132Z,16.85
2022-09-14T02:02:47.509Z,16.85
2022-09-14T02:05:24.494Z,16.83
2022-09-14T02:07:51.048Z,16.80
2022-09-14T02:10:18.152Z,16.79
2022-09-14T02:12:44.815Z,16.75
2022-09-14T02:15:12.769Z,16.73
2022-09-14T02:17:39.500Z,16.73
2022-09-14T02:20:08.307Z,16.71
2022-09-14T02:22:35.245Z,16.69
2022-09-14T02:25:02.077Z,16.68
2022-09-14T02:27:28.537Z,16.64
2022-09-14T02:29:55.270Z,16.62
2022-09-14T02:32:35.425Z,16.61
2022-09-14T02:35:04.615Z,16.60
2022-09-14T02:37:31.258Z,16.61
2022-09-14T02:40:03.558Z,16.59
2022-09-14T02:42:29.989Z,16.56
2022-09-14T02:45:14.962Z,16.54
2022-09-14T02:48:02.527Z,16.54
2022-09-14T02:50:29.387Z,16.55
2022-09-14T02:53:01.875Z,16.57
2022-09-14T02:55:31.614Z,16.56
2022-09-14T02:58:04.380Z,16.58
2022-09-14T03:00:31.545Z,16.61
2022-09-14T03:02:58.757Z,16.63
2022-09-14T03:05:25.732Z,16.65
2022-09-14T03:07:52.210Z,16.67
2022-09-14T03:10:18.695Z,16.68
2022-09-14T03:12:45.217Z,16.72
2022-09-14T03:15:11.754Z,16.74
2022-09-14T03:17:38.293Z,16.75
2022-09-14T03:20:04.937Z,16.78
2022-09-14T03:22:32.377Z,16.77
2022-09-14T03:24:58.833Z,16.77
2022-09-14T03:27:25.274Z,16.77
2022-09-14T03:29:51.716Z,16.76
2022-09-14T03:32:18.181Z,16.75
2022-09-14T03:34:44.620Z,16.74
2022-09-14T03:37:11.159Z,16.76
2022-09-14T03:39:37.830Z,16.81
2022-09-14T03:42:04.323Z,16.85
2022-09-14T03:44:30.763Z,16.86
2022-09-14T03:46:57.242Z,16.88
2022-09-14T03:49:23.664Z,16.92
2022-09-14T03:51:50.103Z,16.97
2022-09-14T03:54:16.542Z,17.01
2022-09-14T03:56:42.966Z,17.05
2022-09-14T03:59:10.189Z,17.06
2022-09-14T04:01:38.402Z,17.09
2022-09-14T04:04:04.942Z,17.11
2022-09-14T04:06:32.804Z,17.13
2022-09-14T04:09:00.092Z,17.16
2022-09-14T04:11:26.662Z,17.18
2022-09-14T04:13:53.443Z,17.16
2022-09-14T04:16:21.108Z,17.14
2022-09-14T04:18:48.009Z,17.10
2022-09-14T04:21:15.766Z,17.02
2022-09-14T04:24:12.749Z,17.00
2022-09-14T04:26:29.976Z,16.98
2022-09-14T04:28:56.943Z,17.01
2022-09-14T04:31:24.250Z,17.06
2022-09-14T04:33:51.361Z,17.10
2022-09-14T04:36:19.392Z,17.14
2022-09-14T04:38:46.079Z,17.13
2022-09-14T04:41:13.975Z,17.14
2022-09-14T04:43:40.715Z,17.16
2022-09-14T04:46:08.800Z,17.20
2022-09-14T04:48:35.387Z,17.28
2022-09-14T04:51:03.164Z,17.34
2022-09-14T04:53:29.875Z,17.42
2022-09-14T04:56:06.341Z,17.46
2022-09-14T04:58:33.313Z,17.50
2022-09-14T05:01:08.313Z,17.53
2022-09-14T05:03:35.163Z,17.63
2022-09-14T05:06:02.411Z,17.73
2022-09-14T05:08:30.218Z,17.78
2022-09-14T05:10:57.462Z,17.77
2022-09-14T05:13:24.213Z,17.89
2022-09-14T05:15:51.143Z,17.97
2022-09-14T05:18:18.150Z,18.06
2022-09-14T05:20:44.779Z,18.18
2022-09-14T05:23:11.379Z,18.27
2022-09-14T05:25:37.900Z,18.37
2022-09-14T05:28:04.343Z,18.46
2022-09-14T05:30:30.984Z,18.57
2022-09-14T05:32:58.176Z,18.72
2022-09-14T05:35:24.730Z,18.89
2022-09-14T05:37:51.163Z,18.98
2022-09-14T05:40:17.766Z,19.11
2022-09-14T05:42:44.341Z,19.20
2022-09-14T05:45:10.922Z,19.32
2022-09-14T05:47:39.278Z,19.50
2022-09-14T05:50:08.446Z,19.66
2022-09-14T05:52:34.898Z,19.87
2022-09-14T05:55:01.674Z,19.98
2022-09-14T05:57:28.113Z,20.15
2022-09-14T05:59:54.539Z,20.29
2022-09-14T06:02:21.091Z,20.43
2022-09-14T06:04:47.567Z,20.61
2022-09-14T06:07:18.763Z,20.74
2022-09-14T06:09:45.902Z,20.84
2022-09-14T06:12:14.574Z,20.93
2022-09-14T06:14:40.999Z,21.18
2022-09-14T06:17:07.485Z,21.37
2022-09-14T06:19:34.031Z,21.50
2022-09-14T06:22:00.727Z,21.66
2022-09-14T06:24:27.319Z,21.83
2022-09-14T06:26:53.746Z,22.04
2022-09-14T06:29:20.179Z,22.26
2022-09-14T06:31:46.763Z,22.41
2022-09-14T06:34:13.254Z,22.59
2022-09-14T06:36:39.713Z,22.82
2022-09-14T06:39:06.168Z,22.94
2022-09-14T06:41:34.347Z,23.24
2022-09-14T06:44:01.880Z,23.37
2022-09-14T06:46:32.306Z,23.43
2022-09-14T06:49:00.817Z,23.43
2022-09-14T06:51:37.248Z,23.62
2022-09-14T06:54:04.114Z,23.73
2022-09-14T06:56:37.899Z,23.90
2022-09-14T06:59:05.400Z,24.02
2022-09-14T07:01:31.984Z,24.09
2022-09-14T07:04:00.300Z,24.22
2022-09-14T07:06:28.366Z,24.29
2022-09-14T07:08:55.743Z,24.43
2022-09-14T07:11:23.654Z,24.54
2022-09-14T07:13:51.741Z,24.88
2022-09-14T07:16:18.292Z,25.09
2022-09-14T07:18:44.774Z,25.18
2022-09-14T07:21:12.521Z,25.38
2022-09-14T07:23:40.122Z,25.50
2022-09-14T07:26:08.825Z,25.76
2022-09-14T07:28:35.839Z,25.97
2022-09-14T07:31:03.174Z,26.22
2022-09-14T07:33:29.774Z,26.20
2022-09-14T07:36:05.120Z,26.09
2022-09-14T07:38:51.153Z,26.21
2022-09-14T07:41:18.246Z,26.33
2022-09-14T07:43:48.055Z,26.47
2022-09-14T07:46:14.546Z,26.42
2022-09-14T07:48:41.114Z,26.65
2022-09-14T07:51:08.702Z,26.73
2022-09-14T07:53:35.912Z,26.77
2022-09-14T07:56:03.604Z,26.93
2022-09-14T07:58:30.127Z,26.92
2022-09-14T08:01:00.425Z,26.72
2022-09-14T08:03:28.846Z,26.87
2022-09-14T08:06:01.861Z,26.77
2022-09-14T08:08:29.413Z,27.04
2022-09-14T08:10:58.902Z,27.10
2022-09-14T08:13:25.383Z,27.37
2022-09-14T08:15:51.987Z,27.15
2022-09-14T08:18:18.826Z,27.52
2022-09-14T08:20:45.277Z,27.57
2022-09-14T08:23:11.974Z,27.83
2022-09-14T08:25:38.389Z,27.70
2022-09-14T08:28:05.698Z,28.07
2022-09-14T08:30:32.937Z,28.15
2022-09-14T08:33:01.841Z,28.44
2022-09-14T08:35:53.981Z,28.49
2022-09-14T08:38:14.992Z,28.61
2022-09-14T08:40:45.302Z,28.70
2022-09-14T08:43:13.266Z,28.75
2022-09-14T08:45:42.095Z,28.52
2022-09-14T08:48:18.832Z,28.37
2022-09-14T08:50:45.350Z,29.00
2022-09-14T08:53:11.866Z,29.03
2022-09-14T08:55:44.663Z,28.82
2022-09-14T08:58:14.220Z,29.09
2022-09-14T09:00:46.986Z,29.11
2022-09-14T09:03:13.462Z,29.20
2022-09-14T09:05:48.923Z,29.21
2022-09-14T09:08:28.921Z,29.67
2022-09-14T09:10:58.806Z,30.08
2022-09-14T09:13:29.124Z,30.22
2022-09-14T09:15:58.989Z,30.38
2022-09-14T09:18:44.013Z,30.79
2022-09-14T09:21:10.428Z,30.48
2022-09-14T09:23:37.281Z,30.80
2022-09-14T09:26:05.905Z,30.95
2022-09-14T09:28:33.697Z,31.10
2022-09-14T09:31:05.554Z,31.30
2022-09-14T09:33:32.385Z,31.63
2022-09-14T09:35:59.531Z,31.79
2022-09-14T09:38:27.280Z,31.71
2022-09-14T09:41:11.927Z,31.72
2022-09-14T09:43:57.214Z,31.63
2022-09-14T09:46:24.511Z,31.26
2022-09-14T09:48:51.480Z,30.98
2022-09-14T09:51:24.326Z,30.96
2022-09-14T09:53:52.572Z,31.26
2022-09-14T09:56:37.589Z,31.50
2022-09-14T09:59:20.902Z,32.05
2022-09-14T10:01:47.543Z,32.61
2022-09-14T10:04:18.331Z,32.14
2022-09-14T10:06:47.496Z,32.10
2022-09-14T10:09:18.591Z,32.53
2022-09-14T10:11:45.730Z,31.91
2022-09-14T10:14:21.485Z,32.46
2022-09-14T10:16:47.945Z,33.07
2022-09-14T10:19:15.746Z,32.21
2022-09-14T10:22:01.621Z,31.84
2022-09-14T10:24:28.133Z,31.80
2022-09-14T10:26:54.542Z,31.74
2022-09-14T10:29:30.622Z,32.23
2022-09-14T10:31:59.988Z,32.03
2022-09-14T10:34:26.578Z,32.70
2022-09-14T10:36:59.866Z,32.34
2022-09-14T10:39:31.264Z,32.43
2022-09-14T10:42:06.997Z,32.56
2022-09-14T10:44:39.224Z,32.90
2022-09-14T10:47:24.363Z,33.04
2022-09-14T10:49:56.785Z,33.05
2022-09-14T10:52:36.927Z,32.61
2022-09-14T10:55:19.865Z,33.01
2022-09-14T10:57:58.263Z,32.83
2022-09-14T11:00:25.296Z,32.91
2022-09-14T11:02:58.070Z,34.04
2022-09-14T11:05:30.496Z,32.89
2022-09-14T11:08:24.520Z,32.64
2022-09-14T11:10:50.954Z,33.26
2022-09-14T11:13:17.468Z,32.94
2022-09-14T11:16:00.079Z,32.21
2022-09-14T11:18:45.128Z,32.22
2022-09-14T11:21:17.679Z,31.97
2022-09-14T11:23:48.002Z,32.71
2022-09-14T11:26:16.888Z,32.49
2022-09-14T11:28:46.490Z,31.80
2022-09-14T11:31:22.438Z,31.60
2022-09-14T11:33:53.640Z,31.78
2022-09-14T11:36:23.301Z,31.86
2022-09-14T11:39:07.036Z,31.97
2022-09-14T11:41:41.584Z,32.00
2022-09-14T11:44:20.929Z,32.08
2022-09-14T11:47:00.598Z,33.06
2022-09-14T11:49:30.335Z,33.62
2022-09-14T11:52:07.226Z,34.21
2022-09-14T11:54:34.466Z,34.52
2022-09-14T11:57:02.332Z,33.92
2022-09-14T11:59:34.610Z,33.95
2022-09-14T12:02:19.704Z,34.31
2022-09-14T12:05:04.594Z,33.58
2022-09-14T12:07:39.963Z,32.41
2022-09-14T12:10:18.215Z,31.65
2022-09-14T12:12:44.685Z,31.89
2022-09-14T12:15:13.888Z,31.98
2022-09-14T12:17:41.735Z,32.49
2022-09-14T12:20:26.974Z,32.89
2022-09-14T12:23:03.904Z,33.01
2022-09-14T12:25:31.397Z,32.45
2022-09-14T12:27:57.931Z,32.70
2022-09-14T12:30:40.498Z,32.70
2022-09-14T12:33:25.660Z,31.75
2022-09-14T12:35:52.147Z,31.54
2022-09-14T12:38:30.565Z,31.44
2022-09-14T12:41:01.299Z,31.79
2022-09-14T12:43:33.672Z,32.30
2022-09-14T12:46:03.309Z,32.14
2022-09-14T12:48:44.782Z,32.50
2022-09-14T12:51:14.241Z,32.71
2022-09-14T12:53:43.729Z,32.87
2022-09-14T12:56:20.655Z,32.65
2022-09-14T12:58:53.609Z,33.40
2022-09-14T13:01:20.035Z,33.55
2022-09-14T13:03:48.673Z,33.54
2022-09-14T13:06:15.166Z,33.40
2022-09-14T13:08:46.302Z,33.33
2022-09-14T13:11:19.927Z,33.16
2022-09-14T13:13:48.032Z,33.02
2022-09-14T13:16:17.668Z,33.11
2022-09-14T13:18:44.260Z,33.07
2022-09-14T13:21:18.566Z,33.23
2022-09-14T13:23:45.444Z,33.52
2022-09-14T13:26:13.250Z,33.36
2022-09-14T13:28:42.408Z,33.41
2022-09-14T13:31:12.189Z,33.29
2022-09-14T13:33:38.753Z,33.28
2022-09-14T13:36:05.495Z,34.27
2022-09-14T13:38:33.629Z,34.77
2022-09-14T13:41:05.575Z,34.67
2022-09-14T13:43:32.848Z,34.48
2022-09-14T13:45:59.304Z,34.43
2022-09-14T13:48:25.902Z,33.67
2022-09-14T13:50:52.581Z,32.65
2022-09-14T13:53:37.689Z,32.19
2022-09-14T13:56:22.916Z,31.78
2022-09-14T13:58:50.919Z,31.54
2022-09-14T14:01:24.638Z,31.07
2022-09-14T14:03:51.404Z,30.93
2022-09-14T14:06:25.941Z,30.91
2022-09-14T14:09:02.862Z,30.82
2022-09-14T14:11:35.220Z,30.70
2022-09-14T14:14:10.912Z,30.95
2022-09-14T14:16:37.590Z,30.70
2022-09-14T14:19:04.130Z,30.84
2022-09-14T14:21:31.910Z,30.82
2022-09-14T14:24:25.177Z,30.72
2022-09-14T14:26:53.383Z,30.65
2022-09-14T14:29:19.913Z,30.36
2022-09-14T14:31:46.475Z,30.37
2022-09-14T14:34:19.084Z,30.40
2022-09-14T14:36:47.243Z,30.25
2022-09-14T14:39:13.982Z,30.20
2022-09-14T14:41:40.960Z,30.30
2022-09-14T14:44:12.759Z,30.40
2022-09-14T14:46:40.956Z,30.29
2022-09-14T14:49:08.750Z,30.14
2022-09-14T14:51:35.172Z,30.16
2022-09-14T14:54:01.594Z,30.11
2022-09-14T14:56:28.752Z,29.87
2022-09-14T14:58:57.820Z,29.67
2022-09-14T15:01:28.236Z,29.61
2022-09-14T15:03:54.801Z,29.63
2022-09-14T15:06:24.470Z,29.42
2022-09-14T15:08:54.900Z,29.41
2022-09-14T15:11:21.716Z,29.43
2022-09-14T15:13:48.241Z,29.37
2022-09-14T15:16:14.898Z,29.31
2022-09-14T15:18:41.494Z,29.35
2022-09-14T15:21:08.332Z,29.34
2022-09-14T15:23:35.188Z,29.32
2022-09-14T15:26:01.823Z,29.19
2022-09-14T15:28:28.322Z,29.12
2022-09-14T15:30:56.369Z,29.08
2022-09-14T15:33:22.781Z,29.02
2022-09-14T15:35:54.715Z,28.97
2022-09-14T15:38:21.182Z,28.88
2022-09-14T15:40:47.674Z,28.87
2022-09-14T15:43:14.143Z,28.75
2022-09-14T15:45:40.655Z,28.69
2022-09-14T15:48:07.190Z,28.61
2022-09-14T15:50:33.660Z,28.62
2022-09-14T15:53:02.688Z,28.63
2022-09-14T15:55:29.782Z,28.55
2022-09-14T15:57:56.204Z,28.60
2022-09-14T16:00:22.695Z,28.68
2022-09-14T16:02:50.202Z,29.49
2022-09-14T16:05:18.938Z,30.58
2022-09-14T16:07:45.384Z,30.78
2022-09-14T16:10:11.804Z,30.47
2022-09-14T16:12:38.245Z,30.47
2022-09-14T16:15:04.900Z,30.85
2022-09-14T16:17:31.394Z,30.99
2022-09-14T16:19:57.860Z,30.75
2022-09-14T16:22:25.305Z,31.15
2022-09-14T16:24:51.719Z,31.39
2022-09-14T16:27:18.488Z,31.23
2022-09-14T16:29:45.024Z,31.05
2022-09-14T16:32:11.546Z,30.71
2022-09-14T16:34:38.081Z,30.23
2022-09-14T16:37:04.651Z,29.75
2022-09-14T16:39:31.727Z,29.44
2022-09-14T16:41:59.954Z,29.14
2022-09-14T16:44:27.814Z,28.93
2022-09-14T16:46:55.484Z,28.76
2022-09-14T16:49:26.491Z,28.46
2022-09-14T16:51:54.304Z,28.15
2022-09-14T16:54:21.805Z,28.00
2022-09-14T16:56:49.226Z,27.82
2022-09-14T16:59:17.564Z,27.69
2022-09-14T17:01:47.092Z,27.51
2022-09-14T17:04:16.601Z,27.36
2022-09-14T17:06:44.389Z,27.16
2022-09-14T17:09:12.715Z,27.03
2022-09-14T17:11:40.056Z,26.88
2022-09-14T17:14:06.745Z,26.77
2022-09-14T17:16:33.666Z,26.70
2022-09-14T17:19:01.661Z,26.53
2022-09-14T17:21:30.414Z,26.46
2022-09-14T17:23:57.387Z,26.33
2022-09-14T17:26:24.235Z,26.23
2022-09-14T17:28:51.531Z,26.14
2022-09-14T17:31:21.427Z,26.10
2022-09-14T17:33:48.093Z,26.01
2022-09-14T17:36:15.336Z,25.89
2022-09-14T17:38:42.603Z,25.76
2022-09-14T17:41:14.224Z,25.67
2022-09-14T17:43:40.753Z,25.56
2022-09-14T17:46:08.282Z,25.48
2022-09-14T17:48:35.761Z,25.41
2022-09-14T17:51:08.427Z,25.36
2022-09-14T17:53:38.674Z,25.27
2022-09-14T17:56:06.606Z,25.18
2022-09-14T17:58:33.593Z,25.14
2022-09-14T18:01:13.912Z,25.12
2022-09-14T18:03:41.549Z,25.06
2022-09-14T18:06:10.152Z,24.99
2022-09-14T18:08:36.932Z,24.91
2022-09-14T18:11:07.756Z,24.84
2022-09-14T18:13:34.560Z,24.80
2022-09-14T18:16:01.542Z,24.75
2022-09-14T18:18:28.358Z,24.75
2022-09-14T18:20:54.918Z,24.69
2022-09-14T18:23:21.532Z,24.66
2022-09-14T18:25:47.981Z,24.60
2022-09-14T18:28:14.506Z,24.58
2022-09-14T18:30:43.673Z,24.61
2022-09-14T18:33:10.598Z,24.56
2022-09-14T18:35:37.977Z,24.56
2022-09-14T18:38:05.662Z,24.56
2022-09-14T18:40:36.174Z,24.54
2022-09-14T18:43:02.896Z,24.50
2022-09-14T18:45:30.620Z,24.47
2022-09-14T18:47:57.471Z,24.46
2022-09-14T18:50:23.977Z,24.43
2022-09-14T18:52:52.253Z,24.39
2022-09-14T18:55:19.314Z,24.33
2022-09-14T18:57:48.840Z,24.28
2022-09-14T19:00:18.584Z,24.21
2022-09-14T19:02:50.618Z,24.18
2022-09-14T19:05:17.186Z,24.15
2022-09-14T19:07:43.624Z,24.10
2022-09-14T19:10:11.781Z,24.08
2022-09-14T19:12:38.494Z,24.08
2022-09-14T19:15:05.257Z,24.07
2022-09-14T19:17:31.700Z,24.00
2022-09-14T19:19:58.394Z,23.90
2022-09-14T19:22:24.889Z,23.83
2022-09-14T19:24:51.590Z,23.80
2022-09-14T19:27:18.111Z,23.79
2022-09-14T19:29:44.648Z,23.75
2022-09-14T19:32:11.079Z,23.70
2022-09-14T19:34:38.580Z,23.66
2022-09-14T19:37:05.685Z,23.58
2022-09-14T19:39:32.170Z,23.56
2022-09-14T19:41:58.707Z,23.54
2022-09-14T19:44:25.162Z,23.52
2022-09-14T19:46:51.872Z,23.48
2022-09-14T19:49:20.705Z,23.46
2022-09-14T19:51:47.528Z,23.51
2022-09-14T19:54:14.543Z,23.55
2022-09-14T19:56:41.448Z,23.50
2022-09-14T19:59:08.600Z,23.46
2022-09-14T20:01:37.184Z,23.40
2022-09-14T20:04:05.000Z,23.35
2022-09-14T20:06:32.577Z,23.31
2022-09-14T20:08:59.295Z,23.21
2022-09-14T20:11:26.745Z,23.12
2022-09-14T20:13:54.265Z,23.01
2022-09-14T20:16:34.424Z,22.93
2022-09-14T20:19:03.518Z,22.91
2022-09-14T20:21:30.073Z,22.91
2022-09-14T20:24:15.141Z,22.89
2022-09-14T20:26:42.758Z,22.88
2022-09-14T20:29:09.303Z,22.85
2022-09-14T20:31:36.130Z,22.82
2022-09-14T20:34:02.666Z,22.82
2022-09-14T20:36:29.803Z,22.87
2022-09-14T20:38:57.338Z,22.89
2022-09-14T20:41:24.837Z,22.88
2022-09-14T20:43:51.929Z,22.85
2022-09-14T20:46:19.962Z,22.85
2022-09-14T20:48:59.102Z,22.84
2022-09-14T20:51:25.784Z,22.88
2022-09-14T20:53:52.348Z,22.90
2022-09-14T20:56:20.396Z,22.91
2022-09-14T20:58:47.130Z,22.91
2022-09-14T21:01:15.099Z,22.90
2022-09-14T21:03:42.350Z,22.91
2022-09-14T21:06:13.791Z,22.90
2022-09-14T21:08:40.932Z,22.89
2022-09-14T21:11:11.860Z,22.91
2022-09-14T21:13:38.756Z,22.94
2022-09-14T21:16:09.914Z,22.97
2022-09-14T21:18:36.505Z,22.97
2022-09-14T21:21:07.602Z,22.93
2022-09-14T21:23:34.382Z,22.92
2022-09-14T21:26:01.221Z,22.89
2022-09-14T21:28:27.758Z,22.89
2022-09-14T21:31:03.579Z,22.86
2022-09-14T21:33:31.416Z,22.84
2022-09-14T21:36:02.072Z,22.82
2022-09-14T21:38:28.500Z,22.79
2022-09-14T21:40:54.990Z,22.80
2022-09-14T21:43:21.459Z,22.78
2022-09-14T21:45:47.953Z,22.76
2022-09-14T21:48:14.568Z,22.71
2022-09-14T21:50:45.282Z,22.68
2022-09-14T21:53:13.972Z,22.67
2022-09-14T21:55:41.080Z,22.62
2022-09-14T21:58:07.820Z,22.59
2022-09-14T22:00:34.304Z,22.56
2022-09-14T22:03:00.964Z,22.54
2022-09-14T22:05:27.508Z,22.51
2022-09-14T22:07:53.976Z,22.53
2022-09-14T22:10:20.481Z,22.49
2022-09-14T22:12:48.260Z,22.43
2022-09-14T22:15:16.172Z,22.42
2022-09-14T22:17:42.986Z,22.41
2022-09-14T22:20:09.621Z,22.42
2022-09-14T22:22:36.082Z,22.39
2022-09-14T22:25:02.636Z,22.38
2022-09-14T22:27:29.107Z,22.35
2022-09-14T22:29:55.586Z,22.34
2022-09-14T22:32:22.831Z,22.30
2022-09-14T22:34:50.699Z,22.29
2022-09-14T22:37:17.305Z,22.29
2022-09-14T22:39:43.945Z,22.35
2022-09-14T22:42:10.670Z,22.33
2022-09-14T22:44:55.547Z,22.33
2022-09-14T22:47:22.029Z,22.32
2022-09-14T22:49:48.637Z,22.28
2022-09-14T22:52:15.175Z,22.27
2022-09-14T22:54:41.644Z,22.24
2022-09-14T22:57:08.731Z,22.20
2022-09-14T22:59:35.183Z,22.20
2022-09-14T23:02:01.677Z,22.21
2022-09-14T23:04:28.133Z,22.18
2022-09-14T23:06:54.751Z,22.18
2022-09-14T23:09:22.218Z,22.16
2022-09-14T23:11:49.074Z,22.15
2022-09-14T23:14:18.883Z,22.15
2022-09-14T23:16:45.842Z,22.15
2022-09-14T23:19:14.573Z,22.13
2022-09-14T23:21:41.047Z,22.08
2022-09-14T23:24:07.666Z,22.04
2022-09-14T23:26:34.305Z,22.01
2022-09-14T23:29:02.151Z,22.01
2022-09-14T23:31:29.402Z,22.03
2022-09-14T23:33:57.527Z,22.03
2022-09-14T23:36:24.187Z,22.04
2022-09-14T23:38:51.051Z,22.04
2022-09-14T23:41:18.313Z,22.03
2022-09-14T23:43:45.026Z,22.10
2022-09-14T23:46:12.700Z,22.08
2022-09-14T23:48:39.225Z,22.06
2022-09-14T23:51:06.923Z,22.05
2022-09-14T23:53:33.955Z,22.02
2022-09-14T23:56:00.691Z,21.98
2022-09-14T23:58:27.199Z,21.92
